createdAt,value
2023-02-26T00:00:42.750Z,4.06
2023-02-26T00:01:42.863Z,3.98
2023-02-26T00:02:42.734Z,4.06
2023-02-26T00:03:42.740Z,4.05
2023-02-26T00:04:42.711Z,4.05
2023-02-26T00:05:42.701Z,4.00
2023-02-26T00:06:42.687Z,3.99
2023-02-26T00:07:42.672Z,4.00
2023-02-26T00:08:42.683Z,3.96
2023-02-26T00:09:42.672Z,4.08
2023-02-26T00:10:42.648Z,3.99
2023-02-26T00:11:42.638Z,4.02
2023-02-26T00:12:42.659Z,4.00
2023-02-26T00:13:42.661Z,3.99
2023-02-26T00:14:42.600Z,4.00
2023-02-26T00:15:42.588Z,3.99
2023-02-26T00:16:42.589Z,3.94
2023-02-26T00:17:42.572Z,3.99
2023-02-26T00:18:42.585Z,4.00
2023-02-26T00:19:42.545Z,4.09
2023-02-26T00:20:42.540Z,4.02
2023-02-26T00:21:42.545Z,3.98
2023-02-26T00:22:42.515Z,3.98
2023-02-26T00:23:42.507Z,3.98
2023-02-26T00:24:42.485Z,4.00
2023-02-26T00:25:42.484Z,3.88
2023-02-26T00:26:42.489Z,4.02
2023-02-26T00:27:42.459Z,3.98
2023-02-26T00:28:42.508Z,3.94
2023-02-26T00:29:42.441Z,3.91
2023-02-26T00:30:42.463Z,3.99
2023-02-26T00:31:42.490Z,4.03
2023-02-26T00:32:42.455Z,3.98
2023-02-26T00:33:42.423Z,4.00
2023-02-26T00:34:42.385Z,3.94
2023-02-26T00:35:42.398Z,3.92
2023-02-26T00:36:42.360Z,4.02
2023-02-26T00:37:42.357Z,3.96
2023-02-26T00:38:42.340Z,3.94
2023-02-26T00:39:42.334Z,4.00
2023-02-26T00:40:42.342Z,3.90
2023-02-26T00:41:42.364Z,3.90
2023-02-26T00:42:42.308Z,3.91
2023-02-26T00:43:42.324Z,4.02
2023-02-26T00:44:42.296Z,3.90
2023-02-26T00:45:42.322Z,3.87
2023-02-26T00:46:42.266Z,3.92
2023-02-26T00:47:42.248Z,3.91
2023-02-26T00:48:42.233Z,3.91
2023-02-26T00:49:42.264Z,3.90
2023-02-26T00:50:42.250Z,3.85
2023-02-26T00:51:42.201Z,3.84
2023-02-26T00:52:42.183Z,3.90
2023-02-26T00:53:42.186Z,3.90
2023-02-26T00:54:42.170Z,3.91
2023-02-26T00:55:42.178Z,3.90
2023-02-26T00:56:42.146Z,3.88
2023-02-26T00:57:42.140Z,3.99
2023-02-26T00:58:42.137Z,3.85
2023-02-26T00:59:42.140Z,3.85
2023-02-26T01:00:42.227Z,3.85
2023-02-26T01:01:42.133Z,3.85
2023-02-26T01:02:42.080Z,3.88
2023-02-26T01:03:42.140Z,3.92
2023-02-26T01:04:42.071Z,3.78
2023-02-26T01:05:42.091Z,3.90
2023-02-26T01:06:42.034Z,3.84
2023-02-26T01:07:42.043Z,3.78
2023-02-26T01:08:42.022Z,3.91
2023-02-26T01:09:42.010Z,3.80
2023-02-26T01:10:42.022Z,3.84
2023-02-26T01:11:41.986Z,3.76
2023-02-26T01:12:41.972Z,3.84
2023-02-26T01:13:41.960Z,3.78
2023-02-26T01:14:41.946Z,3.87
2023-02-26T01:15:42.020Z,3.87
2023-02-26T01:16:41.951Z,3.85
2023-02-26T01:17:41.920Z,3.84
2023-02-26T01:18:41.911Z,3.81
2023-02-26T01:19:41.928Z,3.88
2023-02-26T01:20:41.910Z,3.87
2023-02-26T01:21:41.879Z,3.85
2023-02-26T01:22:41.864Z,3.82
2023-02-26T01:23:41.852Z,3.84
2023-02-26T01:24:41.842Z,3.88
2023-02-26T01:25:41.856Z,3.81
2023-02-26T01:26:41.826Z,3.85
2023-02-26T01:27:41.808Z,3.84
2023-02-26T01:28:41.796Z,3.84
2023-02-26T01:29:41.791Z,3.82
2023-02-26T01:30:41.809Z,3.87
2023-02-26T01:31:42.035Z,3.85
2023-02-26T01:32:41.844Z,3.80
2023-02-26T01:33:41.779Z,3.91
2023-02-26T01:34:41.730Z,3.78
2023-02-26T01:35:41.721Z,3.87
2023-02-26T01:36:41.710Z,3.78
2023-02-26T01:37:41.704Z,3.78
2023-02-26T01:38:41.709Z,3.84
2023-02-26T01:39:41.680Z,3.81
2023-02-26T01:40:41.717Z,3.87
2023-02-26T01:41:41.661Z,3.78
2023-02-26T01:42:41.647Z,3.82
2023-02-26T01:43:41.674Z,3.82
2023-02-26T01:44:41.635Z,3.87
2023-02-26T01:45:41.624Z,3.78
2023-02-26T01:46:41.648Z,3.80
2023-02-26T01:47:41.599Z,3.84
2023-02-26T01:48:41.634Z,3.81
2023-02-26T01:49:41.579Z,3.81
2023-02-26T01:50:41.568Z,3.72
2023-02-26T01:51:41.569Z,3.82
2023-02-26T01:52:41.551Z,3.81
2023-02-26T01:53:41.561Z,3.78
2023-02-26T01:54:41.524Z,3.82
2023-02-26T01:55:41.521Z,3.81
2023-02-26T01:56:41.502Z,3.73
2023-02-26T01:57:41.494Z,3.80
2023-02-26T01:58:41.498Z,3.76
2023-02-26T01:59:41.472Z,3.78
2023-02-26T02:00:41.455Z,3.81
2023-02-26T02:01:41.454Z,3.82
2023-02-26T02:02:41.590Z,3.67
2023-02-26T02:03:41.492Z,3.72
2023-02-26T02:04:41.459Z,3.70
2023-02-26T02:05:41.420Z,3.74
2023-02-26T02:06:41.395Z,3.80
2023-02-26T02:07:41.382Z,3.80
2023-02-26T02:08:41.374Z,3.73
2023-02-26T02:09:41.389Z,3.80
2023-02-26T02:10:41.358Z,3.81
2023-02-26T02:11:41.342Z,3.78
2023-02-26T02:12:41.326Z,3.66
2023-02-26T02:13:41.340Z,3.76
2023-02-26T02:14:41.306Z,3.72
2023-02-26T02:15:41.300Z,3.74
2023-02-26T02:16:41.281Z,3.73
2023-02-26T02:17:41.279Z,3.66
2023-02-26T02:18:41.273Z,3.70
2023-02-26T02:19:41.290Z,3.72
2023-02-26T02:20:41.255Z,3.67
2023-02-26T02:21:41.230Z,3.80
2023-02-26T02:22:41.212Z,3.81
2023-02-26T02:23:41.226Z,3.72
2023-02-26T02:24:41.184Z,3.72
2023-02-26T02:25:41.206Z,3.70
2023-02-26T02:26:41.170Z,3.66
2023-02-26T02:27:41.159Z,3.63
2023-02-26T02:28:41.144Z,3.64
2023-02-26T02:29:41.139Z,3.67
2023-02-26T02:30:41.145Z,3.67
2023-02-26T02:31:41.284Z,3.72
2023-02-26T02:32:41.130Z,3.64
2023-02-26T02:33:41.118Z,3.69
2023-02-26T02:34:41.081Z,3.81
2023-02-26T02:35:41.074Z,3.73
2023-02-26T02:36:41.080Z,3.69
2023-02-26T02:37:41.073Z,3.66
2023-02-26T02:38:41.057Z,3.69
2023-02-26T02:39:41.038Z,3.74
2023-02-26T02:40:41.031Z,3.67
2023-02-26T02:41:41.005Z,3.72
2023-02-26T02:42:41.029Z,3.72
2023-02-26T02:43:41.015Z,3.66
2023-02-26T02:44:40.974Z,3.66
2023-02-26T02:45:40.983Z,3.62
2023-02-26T02:46:40.957Z,3.67
2023-02-26T02:47:40.941Z,3.67
2023-02-26T02:48:40.933Z,3.69
2023-02-26T02:49:40.944Z,3.70
2023-02-26T02:50:40.918Z,3.64
2023-02-26T02:51:40.898Z,3.74
2023-02-26T02:52:40.928Z,3.63
2023-02-26T02:53:40.881Z,3.70
2023-02-26T02:54:40.892Z,3.66
2023-02-26T02:55:40.866Z,3.64
2023-02-26T02:56:40.864Z,3.66
2023-02-26T02:57:40.836Z,3.66
2023-02-26T02:58:40.832Z,3.63
2023-02-26T02:59:40.811Z,3.66
2023-02-26T03:00:40.858Z,3.73
2023-02-26T03:01:40.811Z,3.66
2023-02-26T03:02:40.832Z,3.69
2023-02-26T03:03:40.776Z,3.69
2023-02-26T03:04:40.785Z,3.73
2023-02-26T03:05:40.742Z,3.69
2023-02-26T03:06:40.771Z,3.67
2023-02-26T03:07:40.725Z,3.74
2023-02-26T03:08:40.743Z,3.66
2023-02-26T03:09:40.727Z,3.70
2023-02-26T03:10:40.700Z,3.66
2023-02-26T03:11:40.680Z,3.72
2023-02-26T03:12:40.674Z,3.69
2023-02-26T03:13:40.660Z,3.69
2023-02-26T03:14:40.689Z,3.63
2023-02-26T03:15:40.638Z,3.66
2023-02-26T03:16:40.701Z,3.72
2023-02-26T03:17:40.615Z,3.66
2023-02-26T03:18:40.629Z,3.62
2023-02-26T03:19:40.597Z,3.64
2023-02-26T03:20:40.617Z,3.70
2023-02-26T03:21:40.583Z,3.66
2023-02-26T03:22:40.576Z,3.64
2023-02-26T03:23:40.564Z,3.70
2023-02-26T03:24:40.619Z,3.60
2023-02-26T03:25:40.563Z,3.67
2023-02-26T03:26:40.524Z,3.62
2023-02-26T03:27:40.516Z,3.70
2023-02-26T03:28:40.506Z,3.63
2023-02-26T03:29:40.494Z,3.67
2023-02-26T03:30:40.573Z,3.60
2023-02-26T03:31:40.649Z,3.72
2023-02-26T03:32:40.526Z,3.67
2023-02-26T03:33:40.449Z,3.64
2023-02-26T03:34:40.484Z,3.69
2023-02-26T03:35:40.428Z,3.59
2023-02-26T03:36:40.424Z,3.63
2023-02-26T03:37:40.406Z,3.69
2023-02-26T03:38:40.397Z,3.60
2023-02-26T03:39:40.407Z,3.64
2023-02-26T03:40:40.404Z,3.67
2023-02-26T03:41:40.368Z,3.64
2023-02-26T03:42:40.387Z,3.74
2023-02-26T03:43:40.344Z,3.60
2023-02-26T03:44:40.337Z,3.64
2023-02-26T03:45:40.365Z,3.62
2023-02-26T03:46:40.312Z,3.60
2023-02-26T03:47:40.328Z,3.63
2023-02-26T03:48:40.303Z,3.63
2023-02-26T03:49:40.287Z,3.62
2023-02-26T03:50:40.284Z,3.60
2023-02-26T03:51:40.258Z,3.63
2023-02-26T03:52:40.287Z,3.62
2023-02-26T03:53:40.236Z,3.56
2023-02-26T03:54:40.225Z,3.63
2023-02-26T03:55:40.211Z,3.63
2023-02-26T03:56:40.255Z,3.69
2023-02-26T03:57:40.214Z,3.60
2023-02-26T03:58:40.183Z,3.56
2023-02-26T03:59:40.172Z,3.63
2023-02-26T04:00:42.800Z,3.56
2023-02-26T04:01:40.148Z,3.64
2023-02-26T04:02:40.195Z,3.55
2023-02-26T04:03:40.127Z,3.63
2023-02-26T04:04:40.161Z,3.62
2023-02-26T04:05:40.130Z,3.63
2023-02-26T04:06:40.096Z,3.62
2023-02-26T04:07:40.108Z,3.60
2023-02-26T04:08:40.098Z,3.63
2023-02-26T04:09:40.071Z,3.56
2023-02-26T04:10:40.056Z,3.62
2023-02-26T04:11:40.049Z,3.52
2023-02-26T04:12:40.053Z,3.59
2023-02-26T04:13:40.051Z,3.59
2023-02-26T04:14:40.035Z,3.63
2023-02-26T04:15:39.999Z,3.54
2023-02-26T04:16:40.082Z,3.60
2023-02-26T04:17:39.979Z,3.66
2023-02-26T04:18:39.985Z,3.56
2023-02-26T04:19:39.953Z,3.56
2023-02-26T04:20:39.946Z,3.59
2023-02-26T04:21:39.956Z,3.49
2023-02-26T04:22:39.928Z,3.49
2023-02-26T04:23:39.915Z,3.60
2023-02-26T04:24:39.904Z,3.51
2023-02-26T04:25:39.889Z,3.52
2023-02-26T04:26:39.915Z,3.59
2023-02-26T04:27:39.883Z,3.66
2023-02-26T04:28:39.876Z,3.55
2023-02-26T04:29:39.845Z,3.54
2023-02-26T04:30:39.931Z,3.63
2023-02-26T04:31:39.940Z,3.49
2023-02-26T04:32:39.858Z,3.51
2023-02-26T04:33:39.798Z,3.54
2023-02-26T04:34:39.790Z,3.64
2023-02-26T04:35:39.776Z,3.51
2023-02-26T04:36:39.798Z,3.51
2023-02-26T04:37:39.754Z,3.51
2023-02-26T04:38:39.755Z,3.64
2023-02-26T04:39:39.764Z,3.54
2023-02-26T04:40:39.731Z,3.48
2023-02-26T04:41:39.710Z,3.55
2023-02-26T04:42:39.707Z,3.49
2023-02-26T04:43:39.697Z,3.52
2023-02-26T04:44:39.797Z,3.51
2023-02-26T04:45:39.675Z,3.54
2023-02-26T04:46:39.778Z,3.51
2023-02-26T04:47:39.657Z,3.51
2023-02-26T04:48:39.636Z,3.48
2023-02-26T04:49:39.624Z,3.51
2023-02-26T04:50:39.617Z,3.56
2023-02-26T04:51:39.632Z,3.49
2023-02-26T04:52:39.590Z,3.51
2023-02-26T04:53:39.589Z,3.55
2023-02-26T04:54:39.583Z,3.51
2023-02-26T04:55:39.557Z,3.51
2023-02-26T04:56:39.551Z,3.52
2023-02-26T04:57:39.558Z,3.48
2023-02-26T04:58:39.530Z,3.56
2023-02-26T04:59:39.511Z,3.49
2023-02-26T05:00:39.530Z,3.48
2023-02-26T05:01:39.535Z,3.51
2023-02-26T05:02:39.512Z,3.51
2023-02-26T05:03:39.474Z,3.54
2023-02-26T05:04:39.563Z,3.51
2023-02-26T05:05:39.448Z,3.51
2023-02-26T05:06:39.448Z,3.54
2023-02-26T05:07:39.451Z,3.44
2023-02-26T05:08:39.421Z,3.55
2023-02-26T05:09:39.405Z,3.48
2023-02-26T05:10:39.410Z,3.56
2023-02-26T05:11:39.427Z,3.54
2023-02-26T05:12:39.411Z,3.54
2023-02-26T05:13:39.447Z,3.49
2023-02-26T05:14:39.405Z,3.51
2023-02-26T05:15:39.348Z,3.51
2023-02-26T05:16:39.379Z,3.48
2023-02-26T05:17:39.395Z,3.52
2023-02-26T05:18:39.322Z,3.51
2023-02-26T05:19:39.302Z,3.52
2023-02-26T05:20:39.293Z,3.49
2023-02-26T05:21:39.307Z,3.51
2023-02-26T05:22:39.290Z,3.46
2023-02-26T05:23:39.256Z,3.49
2023-02-26T05:24:39.290Z,3.51
2023-02-26T05:25:39.253Z,3.54
2023-02-26T05:26:39.227Z,3.48
2023-02-26T05:27:39.242Z,3.49
2023-02-26T05:28:39.211Z,3.49
2023-02-26T05:29:39.193Z,3.48
2023-02-26T05:30:39.220Z,3.46
2023-02-26T05:31:39.282Z,3.48
2023-02-26T05:32:39.216Z,3.48
2023-02-26T05:33:39.155Z,3.49
2023-02-26T05:34:39.146Z,3.52
2023-02-26T05:35:39.126Z,3.48
2023-02-26T05:36:39.125Z,3.51
2023-02-26T05:37:39.133Z,3.49
2023-02-26T05:38:39.099Z,3.48
2023-02-26T05:39:39.085Z,3.49
2023-02-26T05:40:39.083Z,3.45
2023-02-26T05:41:39.060Z,3.52
2023-02-26T05:42:39.085Z,3.49
2023-02-26T05:43:39.041Z,3.46
2023-02-26T05:44:39.041Z,3.48
2023-02-26T05:45:39.023Z,3.49
2023-02-26T05:46:39.026Z,3.42
2023-02-26T05:47:39.017Z,3.46
2023-02-26T05:48:39.009Z,3.52
2023-02-26T05:49:38.977Z,3.54
2023-02-26T05:50:38.968Z,3.45
2023-02-26T05:51:38.953Z,3.51
2023-02-26T05:52:38.962Z,3.49
2023-02-26T05:53:38.946Z,3.45
2023-02-26T05:54:38.927Z,3.49
2023-02-26T05:55:38.910Z,3.48
2023-02-26T05:56:38.932Z,3.52
2023-02-26T05:57:38.902Z,3.49
2023-02-26T05:58:38.891Z,3.49
2023-02-26T05:59:38.869Z,3.52
2023-02-26T06:00:38.865Z,3.49
2023-02-26T06:01:38.896Z,3.49
2023-02-26T06:02:38.852Z,3.48
2023-02-26T06:03:38.820Z,3.45
2023-02-26T06:04:38.841Z,3.46
2023-02-26T06:05:38.809Z,3.51
2023-02-26T06:06:38.819Z,3.48
2023-02-26T06:07:38.778Z,3.51
2023-02-26T06:08:38.770Z,3.49
2023-02-26T06:09:38.749Z,3.48
2023-02-26T06:10:38.780Z,3.52
2023-02-26T06:11:38.754Z,3.44
2023-02-26T06:12:38.738Z,3.46
2023-02-26T06:13:38.717Z,3.52
2023-02-26T06:14:38.704Z,3.45
2023-02-26T06:15:38.691Z,3.51
2023-02-26T06:16:38.795Z,3.49
2023-02-26T06:17:40.711Z,3.49
2023-02-26T06:18:38.661Z,3.46
2023-02-26T06:19:38.660Z,3.46
2023-02-26T06:20:38.695Z,3.49
2023-02-26T06:21:38.622Z,3.45
2023-02-26T06:22:38.611Z,3.44
2023-02-26T06:23:38.625Z,3.45
2023-02-26T06:24:38.610Z,3.51
2023-02-26T06:25:38.578Z,3.51
2023-02-26T06:26:38.598Z,3.46
2023-02-26T06:27:38.633Z,3.52
2023-02-26T06:28:38.552Z,3.45
2023-02-26T06:29:38.537Z,3.46
2023-02-26T06:30:38.556Z,3.51
2023-02-26T06:31:38.710Z,3.46
2023-02-26T06:32:38.549Z,3.49
2023-02-26T06:33:38.508Z,3.49
2023-02-26T06:34:38.498Z,3.44
2023-02-26T06:35:38.477Z,3.49
2023-02-26T06:36:38.511Z,3.51
2023-02-26T06:37:38.454Z,3.49
2023-02-26T06:38:38.471Z,3.46
2023-02-26T06:39:38.429Z,3.45
2023-02-26T06:40:38.431Z,3.46
2023-02-26T06:41:38.446Z,3.54
2023-02-26T06:42:38.403Z,3.49
2023-02-26T06:43:38.404Z,3.46
2023-02-26T06:44:38.381Z,3.51
2023-02-26T06:45:38.397Z,3.48
2023-02-26T06:46:38.364Z,3.48
2023-02-26T06:47:38.376Z,3.49
2023-02-26T06:48:38.356Z,3.54
2023-02-26T06:49:38.333Z,3.52
2023-02-26T06:50:38.319Z,3.51
2023-02-26T06:51:38.327Z,3.51
2023-02-26T06:52:38.320Z,3.55
2023-02-26T06:53:38.282Z,3.48
2023-02-26T06:54:38.281Z,3.54
2023-02-26T06:55:38.266Z,3.51
2023-02-26T06:56:38.282Z,3.51
2023-02-26T06:57:38.243Z,3.48
2023-02-26T06:58:38.229Z,3.46
2023-02-26T06:59:38.253Z,3.59
2023-02-26T07:00:38.212Z,3.49
2023-02-26T07:01:38.204Z,3.62
2023-02-26T07:02:38.225Z,3.46
2023-02-26T07:03:38.178Z,3.63
2023-02-26T07:04:38.167Z,3.51
2023-02-26T07:05:38.177Z,3.54
2023-02-26T07:06:38.174Z,3.54
2023-02-26T07:07:38.166Z,3.64
2023-02-26T07:08:38.150Z,3.59
2023-02-26T07:09:38.115Z,3.63
2023-02-26T07:10:38.119Z,3.52
2023-02-26T07:11:38.098Z,3.56
2023-02-26T07:12:38.094Z,3.56
2023-02-26T07:13:38.073Z,3.55
2023-02-26T07:14:38.055Z,3.69
2023-02-26T07:15:38.046Z,3.60
2023-02-26T07:16:38.091Z,3.54
2023-02-26T07:17:38.024Z,3.55
2023-02-26T07:18:38.020Z,3.52
2023-02-26T07:19:38.005Z,3.59
2023-02-26T07:20:38.007Z,3.59
2023-02-26T07:21:37.981Z,3.56
2023-02-26T07:22:37.972Z,3.49
2023-02-26T07:23:37.964Z,3.52
2023-02-26T07:24:37.971Z,3.60
2023-02-26T07:25:37.968Z,3.59
2023-02-26T07:26:37.950Z,3.55
2023-02-26T07:27:37.999Z,3.55
2023-02-26T07:28:37.913Z,3.59
2023-02-26T07:29:37.892Z,3.62
2023-02-26T07:30:38.067Z,3.52
2023-02-26T07:31:38.047Z,3.63
2023-02-26T07:32:37.857Z,3.60
2023-02-26T07:33:37.855Z,3.49
2023-02-26T07:34:37.860Z,3.56
2023-02-26T07:35:37.833Z,3.64
2023-02-26T07:36:37.818Z,3.66
2023-02-26T07:37:37.830Z,3.63
2023-02-26T07:38:37.794Z,3.62
2023-02-26T07:39:37.789Z,3.60
2023-02-26T07:40:37.813Z,3.63
2023-02-26T07:41:37.764Z,3.63
2023-02-26T07:42:37.753Z,3.63
2023-02-26T07:43:37.747Z,3.60
2023-02-26T07:44:37.734Z,3.62
2023-02-26T07:45:37.747Z,3.59
2023-02-26T07:46:37.736Z,3.67
2023-02-26T07:47:37.704Z,3.59
2023-02-26T07:48:37.684Z,3.60
2023-02-26T07:49:37.680Z,3.60
2023-02-26T07:50:37.681Z,3.62
2023-02-26T07:51:37.656Z,3.56
2023-02-26T07:52:37.635Z,3.56
2023-02-26T07:53:37.673Z,3.63
2023-02-26T07:54:37.641Z,3.62
2023-02-26T07:55:37.606Z,3.66
2023-02-26T07:56:37.611Z,3.59
2023-02-26T07:57:37.592Z,3.60
2023-02-26T07:58:37.568Z,3.62
2023-02-26T07:59:37.583Z,3.62
2023-02-26T08:00:37.556Z,3.62
2023-02-26T08:01:37.588Z,3.56
2023-02-26T08:02:37.538Z,3.63
2023-02-26T08:03:37.525Z,3.63
2023-02-26T08:04:37.610Z,3.59
2023-02-26T08:05:37.501Z,3.60
2023-02-26T08:06:37.484Z,3.69
2023-02-26T08:07:37.478Z,3.69
2023-02-26T08:08:37.469Z,3.67
2023-02-26T08:09:37.477Z,3.66
2023-02-26T08:10:37.480Z,3.72
2023-02-26T08:11:37.432Z,3.66
2023-02-26T08:12:37.490Z,3.64
2023-02-26T08:13:37.449Z,3.69
2023-02-26T08:14:37.422Z,3.62
2023-02-26T08:15:37.441Z,3.66
2023-02-26T08:16:37.390Z,3.62
2023-02-26T08:17:37.371Z,3.70
2023-02-26T08:18:37.385Z,3.72
2023-02-26T08:19:37.360Z,3.66
2023-02-26T08:20:37.337Z,3.69
2023-02-26T08:21:37.329Z,3.67
2023-02-26T08:22:37.317Z,3.67
2023-02-26T08:23:37.342Z,3.69
2023-02-26T08:24:37.292Z,3.64
2023-02-26T08:25:37.278Z,3.72
2023-02-26T08:26:37.278Z,3.70
2023-02-26T08:27:37.261Z,3.62
2023-02-26T08:28:37.269Z,3.69
2023-02-26T08:29:37.260Z,3.67
2023-02-26T08:30:37.277Z,3.69
2023-02-26T08:31:37.509Z,3.69
2023-02-26T08:32:37.245Z,3.66
2023-02-26T08:33:37.193Z,3.70
2023-02-26T08:34:37.202Z,3.63
2023-02-26T08:35:37.173Z,3.69
2023-02-26T08:36:37.156Z,3.66
2023-02-26T08:37:37.152Z,3.66
2023-02-26T08:38:37.136Z,3.70
2023-02-26T08:39:37.148Z,3.73
2023-02-26T08:40:37.117Z,3.66
2023-02-26T08:41:37.106Z,3.66
2023-02-26T08:42:37.087Z,3.67
2023-02-26T08:43:37.093Z,3.76
2023-02-26T08:44:37.130Z,3.78
2023-02-26T08:45:37.066Z,3.74
2023-02-26T08:46:37.138Z,3.82
2023-02-26T08:47:39.543Z,3.82
2023-02-26T08:48:38.025Z,3.80
2023-02-26T08:49:37.044Z,3.80
2023-02-26T08:50:37.018Z,3.82
2023-02-26T08:51:37.039Z,3.85
2023-02-26T08:52:36.991Z,3.84
2023-02-26T08:53:36.976Z,3.80
2023-02-26T08:54:36.965Z,3.78
2023-02-26T08:55:36.977Z,3.81
2023-02-26T08:56:36.983Z,3.81
2023-02-26T08:57:36.940Z,3.82
2023-02-26T08:58:36.920Z,3.84
2023-02-26T08:59:36.913Z,3.87
2023-02-26T09:00:36.930Z,3.82
2023-02-26T09:01:37.034Z,3.85
2023-02-26T09:02:36.940Z,3.85
2023-02-26T09:03:36.881Z,3.85
2023-02-26T09:04:36.859Z,3.84
2023-02-26T09:05:36.849Z,3.84
2023-02-26T09:06:36.862Z,3.80
2023-02-26T09:07:36.831Z,3.82
2023-02-26T09:08:36.836Z,3.88
2023-02-26T09:09:36.824Z,3.84
2023-02-26T09:10:36.794Z,3.82
2023-02-26T09:11:36.837Z,3.91
2023-02-26T09:12:36.772Z,3.96
2023-02-26T09:13:36.786Z,3.94
2023-02-26T09:14:36.760Z,3.96
2023-02-26T09:15:36.741Z,3.96
2023-02-26T09:16:36.911Z,3.94
2023-02-26T09:17:36.723Z,3.88
2023-02-26T09:18:36.729Z,3.92
2023-02-26T09:19:36.714Z,3.90
2023-02-26T09:20:36.690Z,3.92
2023-02-26T09:21:36.678Z,3.87
2023-02-26T09:22:36.698Z,3.88
2023-02-26T09:23:36.651Z,3.90
2023-02-26T09:24:36.676Z,3.91
2023-02-26T09:25:36.650Z,3.92
2023-02-26T09:26:36.636Z,3.99
2023-02-26T09:27:36.633Z,4.00
2023-02-26T09:28:36.694Z,3.99
2023-02-26T09:29:36.611Z,3.94
2023-02-26T09:30:36.573Z,3.94
2023-02-26T09:31:36.787Z,3.92
2023-02-26T09:32:36.717Z,4.02
2023-02-26T09:33:36.576Z,3.99
2023-02-26T09:34:36.550Z,3.96
2023-02-26T09:35:36.528Z,4.03
2023-02-26T09:36:36.516Z,3.96
2023-02-26T09:37:36.514Z,4.00
2023-02-26T09:38:36.545Z,4.05
2023-02-26T09:39:36.497Z,4.02
2023-02-26T09:40:36.474Z,4.05
2023-02-26T09:41:36.510Z,3.96
2023-02-26T09:42:36.511Z,4.09
2023-02-26T09:43:36.498Z,4.05
2023-02-26T09:44:36.466Z,4.10
2023-02-26T09:45:36.455Z,4.06
2023-02-26T09:46:36.399Z,4.10
2023-02-26T09:47:36.401Z,4.09
2023-02-26T09:48:36.396Z,4.13
2023-02-26T09:49:36.402Z,4.10
2023-02-26T09:50:36.352Z,4.16
2023-02-26T09:51:36.357Z,4.21
2023-02-26T09:52:36.334Z,4.18
2023-02-26T09:53:36.333Z,4.18
2023-02-26T09:54:36.338Z,4.17
2023-02-26T09:55:36.331Z,4.23
2023-02-26T09:56:36.293Z,4.21
2023-02-26T09:57:36.291Z,4.21
2023-02-26T09:58:36.276Z,4.18
2023-02-26T09:59:36.293Z,4.26
2023-02-26T10:00:36.253Z,4.26
2023-02-26T10:01:36.274Z,4.27
2023-02-26T10:02:36.226Z,4.24
2023-02-26T10:03:36.216Z,4.21
2023-02-26T10:04:36.250Z,4.23
2023-02-26T10:05:36.214Z,4.21
2023-02-26T10:06:36.210Z,4.30
2023-02-26T10:07:36.178Z,4.28
2023-02-26T10:08:36.166Z,4.34
2023-02-26T10:09:36.183Z,4.31
2023-02-26T10:10:36.142Z,4.18
2023-02-26T10:11:36.164Z,4.28
2023-02-26T10:12:36.128Z,4.28
2023-02-26T10:13:40.479Z,4.28
2023-02-26T10:14:37.098Z,4.28
2023-02-26T10:15:36.121Z,4.34
2023-02-26T10:16:36.241Z,4.36
2023-02-26T10:17:36.070Z,4.30
2023-02-26T10:18:36.056Z,4.39
2023-02-26T10:19:36.054Z,4.35
2023-02-26T10:20:36.126Z,4.36
2023-02-26T10:21:36.068Z,4.34
2023-02-26T10:22:36.014Z,4.36
2023-02-26T10:23:36.012Z,4.46
2023-02-26T10:24:36.000Z,4.31
2023-02-26T10:25:36.001Z,4.39
2023-02-26T10:26:35.974Z,4.41
2023-02-26T10:27:35.970Z,4.38
2023-02-26T10:28:35.966Z,4.45
2023-02-26T10:29:35.953Z,4.39
2023-02-26T10:30:35.992Z,4.39
2023-02-26T10:31:36.002Z,4.46
2023-02-26T10:32:36.092Z,4.49
2023-02-26T10:33:35.895Z,4.48
2023-02-26T10:34:35.901Z,4.43
2023-02-26T10:35:35.872Z,4.54
2023-02-26T10:36:35.916Z,4.56
2023-02-26T10:37:35.846Z,4.59
2023-02-26T10:38:35.848Z,4.54
2023-02-26T10:39:35.827Z,4.53
2023-02-26T10:40:35.809Z,4.53
2023-02-26T10:41:35.820Z,4.53
2023-02-26T10:42:35.793Z,4.61
2023-02-26T10:43:35.803Z,4.60
2023-02-26T10:44:35.767Z,4.66
2023-02-26T10:45:35.767Z,4.63
2023-02-26T10:46:35.746Z,4.66
2023-02-26T10:47:35.749Z,4.74
2023-02-26T10:48:35.752Z,4.66
2023-02-26T10:49:35.736Z,4.74
2023-02-26T10:50:35.720Z,4.75
2023-02-26T10:51:35.695Z,4.77
2023-02-26T10:52:35.707Z,4.78
2023-02-26T10:53:35.696Z,4.79
2023-02-26T10:54:35.684Z,4.75
2023-02-26T10:55:35.652Z,4.77
2023-02-26T10:56:35.638Z,4.85
2023-02-26T10:57:35.641Z,4.89
2023-02-26T10:58:35.637Z,4.94
2023-02-26T10:59:35.633Z,4.88
2023-02-26T11:00:35.601Z,4.91
2023-02-26T11:01:35.627Z,4.97
2023-02-26T11:02:35.623Z,4.93
2023-02-26T11:03:35.594Z,4.93
2023-02-26T11:04:35.554Z,5.06
2023-02-26T11:05:35.561Z,5.03
2023-02-26T11:06:35.540Z,5.12
2023-02-26T11:07:35.528Z,5.07
2023-02-26T11:08:35.570Z,5.01
2023-02-26T11:09:35.517Z,5.09
2023-02-26T11:10:35.525Z,5.11
2023-02-26T11:11:35.494Z,5.16
2023-02-26T11:12:35.474Z,5.27
2023-02-26T11:13:35.468Z,5.27
2023-02-26T11:14:35.456Z,5.29
2023-02-26T11:15:35.523Z,5.37
2023-02-26T11:16:35.432Z,5.36
2023-02-26T11:17:35.427Z,5.39
2023-02-26T11:18:35.410Z,5.37
2023-02-26T11:19:35.407Z,5.36
2023-02-26T11:20:35.414Z,5.39
2023-02-26T11:21:35.382Z,5.39
2023-02-26T11:22:35.388Z,5.43
2023-02-26T11:23:35.355Z,5.37
2023-02-26T11:24:35.374Z,5.39
2023-02-26T11:25:36.171Z,5.39
2023-02-26T11:26:35.322Z,5.37
2023-02-26T11:27:35.311Z,5.37
2023-02-26T11:28:35.308Z,5.37
2023-02-26T11:29:35.292Z,5.41
2023-02-26T11:30:35.314Z,5.44
2023-02-26T11:31:35.390Z,5.44
2023-02-26T11:32:35.284Z,5.47
2023-02-26T11:33:35.247Z,5.54
2023-02-26T11:34:35.250Z,5.50
2023-02-26T11:35:35.253Z,5.59
2023-02-26T11:36:35.238Z,5.58
2023-02-26T11:37:35.204Z,5.65
2023-02-26T11:38:35.230Z,5.61
2023-02-26T11:39:35.188Z,5.61
2023-02-26T11:40:35.196Z,5.72
2023-02-26T11:41:35.187Z,5.77
2023-02-26T11:42:35.150Z,5.69
2023-02-26T11:43:35.130Z,5.73
2023-02-26T11:44:35.132Z,5.73
2023-02-26T11:45:35.125Z,5.76
2023-02-26T11:46:35.155Z,5.82
2023-02-26T11:47:35.096Z,5.72
2023-02-26T11:48:35.081Z,5.84
2023-02-26T11:49:36.436Z,5.82
2023-02-26T11:50:35.059Z,5.79
2023-02-26T11:51:35.064Z,5.84
2023-02-26T11:52:35.047Z,5.82
2023-02-26T11:53:35.022Z,5.82
2023-02-26T11:54:35.012Z,5.95
2023-02-26T11:55:34.998Z,5.97
2023-02-26T11:56:35.023Z,5.97
2023-02-26T11:57:34.979Z,6.00
2023-02-26T11:58:34.979Z,5.97
2023-02-26T11:59:34.951Z,5.97
2023-02-26T12:00:34.943Z,6.00
2023-02-26T12:01:34.954Z,6.11
2023-02-26T12:02:34.984Z,6.11
2023-02-26T12:03:34.944Z,6.08
2023-02-26T12:04:34.913Z,6.02
2023-02-26T12:05:34.893Z,6.15
2023-02-26T12:06:34.901Z,6.18
2023-02-26T12:07:34.891Z,6.24
2023-02-26T12:08:34.859Z,6.18
2023-02-26T12:09:34.842Z,6.35
2023-02-26T12:10:34.836Z,6.25
2023-02-26T12:11:34.850Z,6.30
2023-02-26T12:12:34.832Z,6.34
2023-02-26T12:13:34.808Z,6.35
2023-02-26T12:14:34.801Z,6.35
2023-02-26T12:15:34.777Z,6.37
2023-02-26T12:16:34.788Z,6.46
2023-02-26T12:17:34.754Z,6.35
2023-02-26T12:18:34.756Z,6.43
2023-02-26T12:19:34.736Z,6.43
2023-02-26T12:20:34.723Z,6.45
2023-02-26T12:21:34.729Z,6.40
2023-02-26T12:22:34.700Z,6.45
2023-02-26T12:23:34.698Z,6.47
2023-02-26T12:24:34.687Z,6.45
2023-02-26T12:25:34.667Z,6.52
2023-02-26T12:26:34.708Z,6.47
2023-02-26T12:27:34.642Z,6.47
2023-02-26T12:28:34.662Z,6.50
2023-02-26T12:29:34.629Z,6.47
2023-02-26T12:30:34.701Z,6.49
2023-02-26T12:31:34.687Z,6.49
2023-02-26T12:32:34.692Z,6.55
2023-02-26T12:33:34.599Z,6.50
2023-02-26T12:34:34.590Z,6.52
2023-02-26T12:35:34.562Z,6.45
2023-02-26T12:36:48.016Z,6.53
2023-02-26T12:37:35.567Z,6.45
2023-02-26T12:38:34.542Z,6.49
2023-02-26T12:39:34.515Z,6.49
2023-02-26T12:40:34.514Z,6.50
2023-02-26T12:41:34.496Z,6.50
2023-02-26T12:42:34.508Z,6.60
2023-02-26T12:43:35.695Z,6.63
2023-02-26T12:44:34.496Z,6.71
2023-02-26T12:45:34.448Z,6.82
2023-02-26T12:46:34.575Z,6.86
2023-02-26T12:47:34.467Z,6.93
2023-02-26T12:48:34.437Z,6.97
2023-02-26T12:49:34.421Z,6.91
2023-02-26T12:50:34.422Z,7.01
2023-02-26T12:51:34.394Z,6.92
2023-02-26T12:52:34.403Z,6.86
2023-02-26T12:53:34.383Z,6.91
2023-02-26T12:54:36.491Z,6.93
2023-02-26T12:55:34.369Z,6.83
2023-02-26T12:56:34.362Z,6.86
2023-02-26T12:57:34.340Z,6.88
2023-02-26T12:58:34.317Z,6.85
2023-02-26T12:59:34.302Z,6.85
2023-02-26T13:00:34.404Z,6.79
2023-02-26T13:01:34.282Z,6.86
2023-02-26T13:02:34.305Z,6.79
2023-02-26T13:03:34.305Z,6.83
2023-02-26T13:04:34.244Z,6.86
2023-02-26T13:05:34.232Z,6.82
2023-02-26T13:06:34.227Z,6.96
2023-02-26T13:07:34.209Z,6.96
2023-02-26T13:08:34.226Z,6.99
2023-02-26T13:09:34.194Z,7.00
2023-02-26T13:10:34.186Z,7.01
2023-02-26T13:11:34.166Z,7.06
2023-02-26T13:12:34.156Z,7.07
2023-02-26T13:13:34.177Z,7.10
2023-02-26T13:14:34.140Z,7.16
2023-02-26T13:15:34.123Z,7.19
2023-02-26T13:16:34.222Z,7.28
2023-02-26T13:17:34.104Z,7.54
2023-02-26T13:18:34.130Z,7.69